sensor_id;sensor_type;location;lat;lon;timestamp;P1;durP1;ratioP1;P2;durP2;ratioP2
40931;SDS011;36257;46.052;12.540;2022-08-21T00:02:24;3.08;;;1.42;;
40931;SDS011;36257;46.052;12.540;2022-08-21T00:04:51;1.27;;;1.10;;
40931;SDS011;36257;46.052;12.540;2022-08-21T00:07:17;6.82;;;1.30;;
40931;SDS011;36257;46.052;12.540;2022-08-21T00:09:44;4.38;;;1.02;;
40931;SDS011;36257;46.052;12.540;2022-08-21T00:12:10;4.32;;;1.38;;
40931;SDS011;36257;46.052;12.540;2022-08-21T00:14:36;3.67;;;1.30;;
40931;SDS011;36257;46.052;12.540;2022-08-21T00:17:03;4.05;;;1.58;;
40931;SDS011;36257;46.052;12.540;2022-08-21T00:19:30;1.73;;;1.13;;
40931;SDS011;36257;46.052;12.540;2022-08-21T00:21:56;2.00;;;1.27;;
40931;SDS011;36257;46.052;12.540;2022-08-21T00:24:22;3.47;;;1.60;;
40931;SDS011;36257;46.052;12.540;2022-08-21T00:26:49;4.53;;;1.52;;
40931;SDS011;36257;46.052;12.540;2022-08-21T00:29:15;3.70;;;1.30;;
40931;SDS011;36257;46.052;12.540;2022-08-21T00:31:41;1.20;;;1.10;;
40931;SDS011;36257;46.052;12.540;2022-08-21T00:34:08;3.40;;;1.23;;
40931;SDS011;36257;46.052;12.540;2022-08-21T00:36:35;1.33;;;0.93;;
40931;SDS011;36257;46.052;12.540;2022-08-21T00:39:02;1.33;;;0.93;;
40931;SDS011;36257;46.052;12.540;2022-08-21T00:41:28;2.80;;;1.30;;
40931;SDS011;36257;46.052;12.540;2022-08-21T00:43:54;2.53;;;1.48;;
40931;SDS011;36257;46.052;12.540;2022-08-21T00:46:20;1.33;;;1.23;;
40931;SDS011;36257;46.052;12.540;2022-08-21T00:48:46;1.50;;;1.13;;
40931;SDS011;36257;46.052;12.540;2022-08-21T00:51:16;2.45;;;1.20;;
40931;SDS011;36257;46.052;12.540;2022-08-21T00:53:48;2.67;;;1.00;;
40931;SDS011;36257;46.052;12.540;2022-08-21T00:56:18;1.65;;;1.30;;
40931;SDS011;36257;46.052;12.540;2022-08-21T00:58:45;3.17;;;1.08;;
40931;SDS011;36257;46.052;12.540;2022-08-21T01:01:12;1.77;;;1.05;;
40931;SDS011;36257;46.052;12.540;2022-08-21T01:03:38;2.83;;;1.00;;
40931;SDS011;36257;46.052;12.540;2022-08-21T01:06:04;3.38;;;1.42;;
40931;SDS011;36257;46.052;12.540;2022-08-21T01:08:30;1.17;;;0.80;;
40931;SDS011;36257;46.052;12.540;2022-08-21T01:10:56;1.48;;;0.90;;
40931;SDS011;36257;46.052;12.540;2022-08-21T01:13:24;1.80;;;1.08;;
40931;SDS011;36257;46.052;12.540;2022-08-21T01:15:52;2.03;;;1.23;;
40931;SDS011;36257;46.052;12.540;2022-08-21T01:18:19;1.30;;;1.00;;
40931;SDS011;36257;46.052;12.540;2022-08-21T01:23:34;1.20;;;0.88;;
40931;SDS011;36257;46.052;12.540;2022-08-21T01:26:01;1.15;;;0.60;;
40931;SDS011;36257;46.052;12.540;2022-08-21T01:28:27;2.20;;;0.90;;
40931;SDS011;36257;46.052;12.540;2022-08-21T01:30:58;5.80;;;1.10;;
40931;SDS011;36257;46.052;12.540;2022-08-21T01:33:26;5.78;;;1.35;;
40931;SDS011;36257;46.052;12.540;2022-08-21T01:35:52;1.13;;;0.80;;
40931;SDS011;36257;46.052;12.540;2022-08-21T01:38:18;3.95;;;1.00;;
40931;SDS011;36257;46.052;12.540;2022-08-21T01:40:44;1.00;;;0.80;;
40931;SDS011;36257;46.052;12.540;2022-08-21T01:43:09;1.90;;;1.00;;
40931;SDS011;36257;46.052;12.540;2022-08-21T01:45:35;1.42;;;0.60;;
40931;SDS011;36257;46.052;12.540;2022-08-21T01:48:01;2.60;;;0.90;;
40931;SDS011;36257;46.052;12.540;2022-08-21T01:50:27;3.88;;;0.80;;
40931;SDS011;36257;46.052;12.540;2022-08-21T01:52:53;2.60;;;0.90;;
40931;SDS011;36257;46.052;12.540;2022-08-21T01:55:19;2.08;;;1.08;;
40931;SDS011;36257;46.052;12.540;2022-08-21T01:57:45;0.82;;;0.65;;
40931;SDS011;36257;46.052;12.540;2022-08-21T02:00:12;2.80;;;1.00;;
40931;SDS011;36257;46.052;12.540;2022-08-21T02:02:40;0.77;;;0.70;;
40931;SDS011;36257;46.052;12.540;2022-08-21T02:05:06;1.23;;;1.05;;
40931;SDS011;36257;46.052;12.540;2022-08-21T02:07:48;1.92;;;0.80;;
40931;SDS011;36257;46.052;12.540;2022-08-21T02:10:17;1.23;;;0.80;;
40931;SDS011;36257;46.052;12.540;2022-08-21T02:12:46;0.82;;;0.80;;
40931;SDS011;36257;46.052;12.540;2022-08-21T02:15:12;2.25;;;0.90;;
40931;SDS011;36257;46.052;12.540;2022-08-21T02:17:43;1.30;;;0.80;;
40931;SDS011;36257;46.052;12.540;2022-08-21T02:20:12;1.30;;;0.60;;
40931;SDS011;36257;46.052;12.540;2022-08-21T02:22:45;0.82;;;0.77;;
40931;SDS011;36257;46.052;12.540;2022-08-21T02:25:11;2.40;;;1.00;;
40931;SDS011;36257;46.052;12.540;2022-08-21T02:27:41;2.90;;;1.08;;
40931;SDS011;36257;46.052;12.540;2022-08-21T02:30:12;2.80;;;0.88;;
40931;SDS011;36257;46.052;12.540;2022-08-21T02:32:40;2.60;;;0.88;;
40931;SDS011;36257;46.052;12.540;2022-08-21T02:35:07;1.15;;;0.70;;
40931;SDS011;36257;46.052;12.540;2022-08-21T02:37:34;3.28;;;0.57;;
40931;SDS011;36257;46.052;12.540;2022-08-21T02:40:07;4.47;;;0.80;;
40931;SDS011;36257;46.052;12.540;2022-08-21T02:42:36;1.05;;;0.70;;
40931;SDS011;36257;46.052;12.540;2022-08-21T02:45:02;2.33;;;0.80;;
40931;SDS011;36257;46.052;12.540;2022-08-21T02:47:28;1.38;;;0.55;;
40931;SDS011;36257;46.052;12.540;2022-08-21T02:49:54;4.78;;;1.00;;
40931;SDS011;36257;46.052;12.540;2022-08-21T02:52:19;2.00;;;0.70;;
40931;SDS011;36257;46.052;12.540;2022-08-21T02:54:46;1.95;;;1.30;;
40931;SDS011;36257;46.052;12.540;2022-08-21T02:57:12;0.63;;;0.63;;
40931;SDS011;36257;46.052;12.540;2022-08-21T02:59:38;0.95;;;0.63;;
40931;SDS011;36257;46.052;12.540;2022-08-21T03:02:04;1.27;;;0.55;;
40931;SDS011;36257;46.052;12.540;2022-08-21T03:04:29;0.80;;;0.68;;
40931;SDS011;36257;46.052;12.540;2022-08-21T03:06:55;1.08;;;0.77;;
40931;SDS011;36257;46.052;12.540;2022-08-21T03:09:21;0.90;;;0.90;;
40931;SDS011;36257;46.052;12.540;2022-08-21T03:11:46;3.30;;;0.70;;
40931;SDS011;36257;46.052;12.540;2022-08-21T03:14:12;1.55;;;0.90;;
40931;SDS011;36257;46.052;12.540;2022-08-21T03:16:37;1.20;;;0.73;;
40931;SDS011;36257;46.052;12.540;2022-08-21T03:19:03;2.17;;;0.77;;
40931;SDS011;36257;46.052;12.540;2022-08-21T03:21:29;1.88;;;0.98;;
40931;SDS011;36257;46.052;12.540;2022-08-21T03:23:55;1.05;;;0.70;;
40931;SDS011;36257;46.052;12.540;2022-08-21T03:26:21;0.98;;;0.57;;
40931;SDS011;36257;46.052;12.540;2022-08-21T03:28:46;1.77;;;0.77;;
40931;SDS011;36257;46.052;12.540;2022-08-21T03:31:12;1.30;;;0.70;;
40931;SDS011;36257;46.052;12.540;2022-08-21T03:33:38;1.15;;;0.60;;
40931;SDS011;36257;46.052;12.540;2022-08-21T03:36:05;4.88;;;0.90;;
40931;SDS011;36257;46.052;12.540;2022-08-21T03:38:32;0.77;;;0.60;;
40931;SDS011;36257;46.052;12.540;2022-08-21T03:40:59;2.08;;;0.82;;
40931;SDS011;36257;46.052;12.540;2022-08-21T03:43:25;1.33;;;1.00;;
40931;SDS011;36257;46.052;12.540;2022-08-21T03:45:51;3.17;;;1.00;;
40931;SDS011;36257;46.052;12.540;2022-08-21T03:48:17;0.95;;;0.60;;
40931;SDS011;36257;46.052;12.540;2022-08-21T03:50:43;1.77;;;1.00;;
40931;SDS011;36257;46.052;12.540;2022-08-21T03:53:12;1.33;;;0.82;;
40931;SDS011;36257;46.052;12.540;2022-08-21T03:55:39;1.70;;;0.82;;
40931;SDS011;36257;46.052;12.540;2022-08-21T03:58:04;0.82;;;0.63;;
40931;SDS011;36257;46.052;12.540;2022-08-21T04:00:30;2.00;;;0.52;;
40931;SDS011;36257;46.052;12.540;2022-08-21T04:02:56;4.43;;;0.70;;
40931;SDS011;36257;46.052;12.540;2022-08-21T04:05:22;1.25;;;0.70;;
40931;SDS011;36257;46.052;12.540;2022-08-21T04:07:58;1.00;;;0.80;;
40931;SDS011;36257;46.052;12.540;2022-08-21T04:10:27;6.18;;;0.93;;
40931;SDS011;36257;46.052;12.540;2022-08-21T04:12:55;2.78;;;0.75;;
40931;SDS011;36257;46.052;12.540;2022-08-21T04:15:21;0.68;;;0.68;;
40931;SDS011;36257;46.052;12.540;2022-08-21T04:17:47;1.60;;;0.50;;
40931;SDS011;36257;46.052;12.540;2022-08-21T04:20:14;2.30;;;0.65;;
40931;SDS011;36257;46.052;12.540;2022-08-21T04:22:41;0.47;;;0.47;;
40931;SDS011;36257;46.052;12.540;2022-08-21T04:25:07;1.27;;;0.60;;
40931;SDS011;36257;46.052;12.540;2022-08-21T04:27:33;0.80;;;0.60;;
40931;SDS011;36257;46.052;12.540;2022-08-21T04:29:59;2.45;;;0.80;;
40931;SDS011;36257;46.052;12.540;2022-08-21T04:32:26;0.70;;;0.70;;
40931;SDS011;36257;46.052;12.540;2022-08-21T04:35:02;2.00;;;0.50;;
40931;SDS011;36257;46.052;12.540;2022-08-21T04:37:33;0.65;;;0.65;;
40931;SDS011;36257;46.052;12.540;2022-08-21T04:39:59;0.57;;;0.50;;
40931;SDS011;36257;46.052;12.540;2022-08-21T04:42:25;1.30;;;0.50;;
40931;SDS011;36257;46.052;12.540;2022-08-21T04:44:52;0.80;;;0.80;;
40931;SDS011;36257;46.052;12.540;2022-08-21T04:47:18;1.40;;;1.30;;
40931;SDS011;36257;46.052;12.540;2022-08-21T04:49:44;0.68;;;0.68;;
40931;SDS011;36257;46.052;12.540;2022-08-21T04:52:11;2.88;;;0.70;;
40931;SDS011;36257;46.052;12.540;2022-08-21T04:54:38;0.73;;;0.52;;
40931;SDS011;36257;46.052;12.540;2022-08-21T04:57:05;0.77;;;0.70;;
40931;SDS011;36257;46.052;12.540;2022-08-21T04:59:38;2.35;;;0.88;;
40931;SDS011;36257;46.052;12.540;2022-08-21T05:02:09;0.68;;;0.60;;
40931;SDS011;36257;46.052;12.540;2022-08-21T05:04:36;2.25;;;0.55;;
40931;SDS011;36257;46.052;12.540;2022-08-21T05:07:20;0.82;;;0.60;;
40931;SDS011;36257;46.052;12.540;2022-08-21T05:09:51;1.88;;;0.73;;
40931;SDS011;36257;46.052;12.540;2022-08-21T05:12:18;0.80;;;0.60;;
40931;SDS011;36257;46.052;12.540;2022-08-21T05:14:44;0.60;;;0.60;;
40931;SDS011;36257;46.052;12.540;2022-08-21T05:17:10;3.03;;;0.70;;
40931;SDS011;36257;46.052;12.540;2022-08-21T05:19:35;0.68;;;0.60;;
40931;SDS011;36257;46.052;12.540;2022-08-21T05:22:01;0.50;;;0.50;;
40931;SDS011;36257;46.052;12.540;2022-08-21T05:24:27;0.63;;;0.63;;
40931;SDS011;36257;46.052;12.540;2022-08-21T05:26:53;3.42;;;0.65;;
40931;SDS011;36257;46.052;12.540;2022-08-21T05:29:19;0.88;;;0.50;;
40931;SDS011;36257;46.052;12.540;2022-08-21T05:31:46;0.73;;;0.40;;
40931;SDS011;36257;46.052;12.540;2022-08-21T05:34:13;2.17;;;0.75;;
40931;SDS011;36257;46.052;12.540;2022-08-21T05:36:40;1.20;;;0.88;;
40931;SDS011;36257;46.052;12.540;2022-08-21T05:39:05;0.75;;;0.50;;
40931;SDS011;36257;46.052;12.540;2022-08-21T05:41:31;1.10;;;0.65;;
40931;SDS011;36257;46.052;12.540;2022-08-21T05:43:57;1.17;;;0.75;;
40931;SDS011;36257;46.052;12.540;2022-08-21T05:46:22;1.08;;;0.73;;
40931;SDS011;36257;46.052;12.540;2022-08-21T05:48:48;0.77;;;0.70;;
40931;SDS011;36257;46.052;12.540;2022-08-21T05:51:14;0.70;;;0.57;;
40931;SDS011;36257;46.052;12.540;2022-08-21T05:53:41;1.42;;;0.60;;
40931;SDS011;36257;46.052;12.540;2022-08-21T05:56:07;1.60;;;0.52;;
40931;SDS011;36257;46.052;12.540;2022-08-21T05:58:34;6.00;;;0.93;;
40931;SDS011;36257;46.052;12.540;2022-08-21T06:01:01;2.05;;;0.93;;
40931;SDS011;36257;46.052;12.540;2022-08-21T06:03:30;0.85;;;0.50;;
40931;SDS011;36257;46.052;12.540;2022-08-21T06:06:00;0.90;;;0.40;;
40931;SDS011;36257;46.052;12.540;2022-08-21T06:08:26;0.95;;;0.50;;
40931;SDS011;36257;46.052;12.540;2022-08-21T06:10:52;1.88;;;0.57;;
40931;SDS011;36257;46.052;12.540;2022-08-21T06:13:20;0.52;;;0.52;;
40931;SDS011;36257;46.052;12.540;2022-08-21T06:15:46;2.45;;;0.60;;
40931;SDS011;36257;46.052;12.540;2022-08-21T06:18:13;2.92;;;0.70;;
40931;SDS011;36257;46.052;12.540;2022-08-21T06:20:39;0.40;;;0.32;;
40931;SDS011;36257;46.052;12.540;2022-08-21T06:23:05;1.35;;;0.47;;
40931;SDS011;36257;46.052;12.540;2022-08-21T06:25:31;1.33;;;0.70;;
40931;SDS011;36257;46.052;12.540;2022-08-21T06:28:01;1.20;;;0.70;;
40931;SDS011;36257;46.052;12.540;2022-08-21T06:30:30;1.75;;;0.65;;
40931;SDS011;36257;46.052;12.540;2022-08-21T06:32:56;2.17;;;0.50;;
40931;SDS011;36257;46.052;12.540;2022-08-21T06:35:22;3.50;;;0.55;;
40931;SDS011;36257;46.052;12.540;2022-08-21T06:37:49;1.58;;;0.70;;
40931;SDS011;36257;46.052;12.540;2022-08-21T06:40:15;1.65;;;0.60;;
40931;SDS011;36257;46.052;12.540;2022-08-21T06:42:41;2.33;;;0.90;;
40931;SDS011;36257;46.052;12.540;2022-08-21T06:45:07;2.30;;;0.80;;
40931;SDS011;36257;46.052;12.540;2022-08-21T06:47:33;1.80;;;0.68;;
40931;SDS011;36257;46.052;12.540;2022-08-21T06:49:59;1.30;;;0.60;;
40931;SDS011;36257;46.052;12.540;2022-08-21T06:52:24;1.20;;;0.68;;
40931;SDS011;36257;46.052;12.540;2022-08-21T06:54:50;2.55;;;0.88;;
40931;SDS011;36257;46.052;12.540;2022-08-21T06:57:16;3.92;;;0.90;;
40931;SDS011;36257;46.052;12.540;2022-08-21T06:59:42;1.80;;;0.70;;
40931;SDS011;36257;46.052;12.540;2022-08-21T07:02:08;1.58;;;0.70;;
40931;SDS011;36257;46.052;12.540;2022-08-21T07:04:34;2.30;;;0.80;;
40931;SDS011;36257;46.052;12.540;2022-08-21T07:06:59;1.33;;;0.63;;
40931;SDS011;36257;46.052;12.540;2022-08-21T07:09:25;3.17;;;1.00;;
40931;SDS011;36257;46.052;12.540;2022-08-21T07:11:52;1.45;;;0.88;;
40931;SDS011;36257;46.052;12.540;2022-08-21T07:14:19;1.65;;;0.80;;
40931;SDS011;36257;46.052;12.540;2022-08-21T07:16:45;4.82;;;0.98;;
40931;SDS011;36257;46.052;12.540;2022-08-21T07:19:11;4.10;;;1.17;;
40931;SDS011;36257;46.052;12.540;2022-08-21T07:21:37;4.10;;;1.20;;
40931;SDS011;36257;46.052;12.540;2022-08-21T07:24:03;3.83;;;0.90;;
40931;SDS011;36257;46.052;12.540;2022-08-21T07:26:29;3.95;;;0.90;;
40931;SDS011;36257;46.052;12.540;2022-08-21T07:28:54;2.13;;;1.20;;
40931;SDS011;36257;46.052;12.540;2022-08-21T07:31:21;2.75;;;1.08;;
40931;SDS011;36257;46.052;12.540;2022-08-21T07:33:48;5.47;;;1.33;;
40931;SDS011;36257;46.052;12.540;2022-08-21T07:36:13;5.13;;;1.88;;
40931;SDS011;36257;46.052;12.540;2022-08-21T07:38:39;5.70;;;1.48;;
40931;SDS011;36257;46.052;12.540;2022-08-21T07:41:07;2.28;;;1.25;;
40931;SDS011;36257;46.052;12.540;2022-08-21T07:43:41;5.53;;;1.67;;
40931;SDS011;36257;46.052;12.540;2022-08-21T07:46:07;2.25;;;1.00;;
40931;SDS011;36257;46.052;12.540;2022-08-21T07:48:32;5.82;;;1.27;;
40931;SDS011;36257;46.052;12.540;2022-08-21T07:50:58;4.97;;;1.50;;
40931;SDS011;36257;46.052;12.540;2022-08-21T07:53:29;6.75;;;1.30;;
40931;SDS011;36257;46.052;12.540;2022-08-21T07:55:56;2.53;;;1.20;;
40931;SDS011;36257;46.052;12.540;2022-08-21T07:58:23;4.85;;;1.15;;
40931;SDS011;36257;46.052;12.540;2022-08-21T08:00:48;9.32;;;1.48;;
40931;SDS011;36257;46.052;12.540;2022-08-21T08:03:14;2.70;;;1.23;;
40931;SDS011;36257;46.052;12.540;2022-08-21T08:05:40;4.00;;;1.30;;
40931;SDS011;36257;46.052;12.540;2022-08-21T08:08:05;1.50;;;1.10;;
40931;SDS011;36257;46.052;12.540;2022-08-21T08:10:32;4.10;;;1.45;;
40931;SDS011;36257;46.052;12.540;2022-08-21T08:12:57;5.00;;;1.00;;
40931;SDS011;36257;46.052;12.540;2022-08-21T08:15:24;4.35;;;1.42;;
40931;SDS011;36257;46.052;12.540;2022-08-21T08:17:52;8.25;;;1.55;;
40931;SDS011;36257;46.052;12.540;2022-08-21T08:20:19;3.65;;;1.35;;
40931;SDS011;36257;46.052;12.540;2022-08-21T08:22:46;4.75;;;0.75;;
40931;SDS011;36257;46.052;12.540;2022-08-21T08:25:13;2.33;;;0.98;;
40931;SDS011;36257;46.052;12.540;2022-08-21T08:27:39;3.45;;;1.42;;
40931;SDS011;36257;46.052;12.540;2022-08-21T08:30:05;3.33;;;1.20;;
40931;SDS011;36257;46.052;12.540;2022-08-21T08:32:33;2.65;;;1.00;;
40931;SDS011;36257;46.052;12.540;2022-08-21T08:34:59;5.32;;;1.10;;
40931;SDS011;36257;46.052;12.540;2022-08-21T08:37:25;3.72;;;0.90;;
40931;SDS011;36257;46.052;12.540;2022-08-21T08:39:51;2.40;;;1.25;;
40931;SDS011;36257;46.052;12.540;2022-08-21T08:42:30;5.53;;;1.23;;
40931;SDS011;36257;46.052;12.540;2022-08-21T08:47:38;5.47;;;1.05;;
40931;SDS011;36257;46.052;12.540;2022-08-21T08:50:17;5.18;;;1.02;;
40931;SDS011;36257;46.052;12.540;2022-08-21T08:52:58;2.13;;;0.85;;
40931;SDS011;36257;46.052;12.540;2022-08-21T08:55:30;1.65;;;0.70;;
40931;SDS011;36257;46.052;12.540;2022-08-21T08:58:02;4.25;;;1.20;;
40931;SDS011;36257;46.052;12.540;2022-08-21T09:00:29;1.35;;;0.50;;
40931;SDS011;36257;46.052;12.540;2022-08-21T09:02:56;1.33;;;0.73;;
40931;SDS011;36257;46.052;12.540;2022-08-21T09:05:26;2.47;;;0.82;;
40931;SDS011;36257;46.052;12.540;2022-08-21T09:08:10;2.35;;;0.98;;
40931;SDS011;36257;46.052;12.540;2022-08-21T09:11:04;4.78;;;1.20;;
40931;SDS011;36257;46.052;12.540;2022-08-21T09:13:37;2.15;;;1.00;;
40931;SDS011;36257;46.052;12.540;2022-08-21T09:16:29;4.80;;;0.73;;
40931;SDS011;36257;46.052;12.540;2022-08-21T09:27:36;1.88;;;0.52;;
40931;SDS011;36257;46.052;12.540;2022-08-21T09:30:03;2.53;;;0.90;;
40931;SDS011;36257;46.052;12.540;2022-08-21T09:32:32;3.58;;;0.60;;
40931;SDS011;36257;46.052;12.540;2022-08-21T09:35:00;2.92;;;0.68;;
40931;SDS011;36257;46.052;12.540;2022-08-21T09:37:54;1.05;;;0.60;;
40931;SDS011;36257;46.052;12.540;2022-08-21T09:40:40;5.78;;;0.95;;
40931;SDS011;36257;46.052;12.540;2022-08-21T09:45:37;1.23;;;0.60;;
40931;SDS011;36257;46.052;12.540;2022-08-21T09:48:15;6.35;;;0.68;;
40931;SDS011;36257;46.052;12.540;2022-08-21T09:50:45;4.95;;;0.90;;
40931;SDS011;36257;46.052;12.540;2022-08-21T09:53:28;2.80;;;0.85;;
40931;SDS011;36257;46.052;12.540;2022-08-21T09:55:59;1.63;;;0.60;;
40931;SDS011;36257;46.052;12.540;2022-08-21T09:58:49;4.25;;;0.88;;
40931;SDS011;36257;46.052;12.540;2022-08-21T10:01:17;3.17;;;0.75;;
40931;SDS011;36257;46.052;12.540;2022-08-21T10:03:45;1.88;;;0.40;;
40931;SDS011;36257;46.052;12.540;2022-08-21T10:06:20;2.22;;;0.70;;
40931;SDS011;36257;46.052;12.540;2022-08-21T10:08:50;1.90;;;0.70;;
40931;SDS011;36257;46.052;12.540;2022-08-21T10:11:16;0.68;;;0.50;;
40931;SDS011;36257;46.052;12.540;2022-08-21T10:14:12;0.73;;;0.32;;
40931;SDS011;36257;46.052;12.540;2022-08-21T10:17:01;2.50;;;0.75;;
40931;SDS011;36257;46.052;12.540;2022-08-21T10:19:51;0.90;;;0.40;;
40931;SDS011;36257;46.052;12.540;2022-08-21T10:22:38;0.73;;;0.30;;
40931;SDS011;36257;46.052;12.540;2022-08-21T10:28:06;1.00;;;0.40;;
40931;SDS011;36257;46.052;12.540;2022-08-21T10:33:20;2.20;;;0.50;;
40931;SDS011;36257;46.052;12.540;2022-08-21T10:39:15;1.30;;;0.32;;
40931;SDS011;36257;46.052;12.540;2022-08-21T10:49:35;0.85;;;0.60;;
40931;SDS011;36257;46.052;12.540;2022-08-21T10:57:49;1.15;;;0.50;;
40931;SDS011;36257;46.052;12.540;2022-08-21T11:00:20;0.73;;;0.35;;
40931;SDS011;36257;46.052;12.540;2022-08-21T11:02:57;2.05;;;0.40;;
40931;SDS011;36257;46.052;12.540;2022-08-21T11:05:33;0.68;;;0.28;;
40931;SDS011;36257;46.052;12.540;2022-08-21T11:08:23;1.13;;;0.85;;
40931;SDS011;36257;46.052;12.540;2022-08-21T11:11:04;1.00;;;0.50;;
40931;SDS011;36257;46.052;12.540;2022-08-21T11:16:26;1.27;;;0.40;;
40931;SDS011;36257;46.052;12.540;2022-08-21T11:18:58;0.40;;;0.40;;
40931;SDS011;36257;46.052;12.540;2022-08-21T11:24:24;3.70;;;0.60;;
40931;SDS011;36257;46.052;12.540;2022-08-21T11:26:59;0.68;;;0.50;;
40931;SDS011;36257;46.052;12.540;2022-08-21T11:29:35;1.02;;;0.35;;
40931;SDS011;36257;46.052;12.540;2022-08-21T11:51:01;0.75;;;0.30;;
40931;SDS011;36257;46.052;12.540;2022-08-21T11:53:34;0.95;;;0.30;;
40931;SDS011;36257;46.052;12.540;2022-08-21T11:56:34;2.17;;;0.50;;
40931;SDS011;36257;46.052;12.540;2022-08-21T11:59:11;0.40;;;0.30;;
40931;SDS011;36257;46.052;12.540;2022-08-21T12:01:46;0.40;;;0.20;;
40931;SDS011;36257;46.052;12.540;2022-08-21T12:06:51;1.73;;;0.67;;
40931;SDS011;36257;46.052;12.540;2022-08-21T12:09:31;1.40;;;0.37;;
40931;SDS011;36257;46.052;12.540;2022-08-21T12:14:47;1.73;;;0.52;;
40931;SDS011;36257;46.052;12.540;2022-08-21T12:17:19;0.40;;;0.40;;
40931;SDS011;36257;46.052;12.540;2022-08-21T12:19:58;0.38;;;0.28;;
40931;SDS011;36257;46.052;12.540;2022-08-21T12:22:38;1.77;;;0.32;;
40931;SDS011;36257;46.052;12.540;2022-08-21T12:25:10;1.95;;;0.25;;
40931;SDS011;36257;46.052;12.540;2022-08-21T12:27:45;2.38;;;0.80;;
40931;SDS011;36257;46.052;12.540;2022-08-21T12:35:27;0.50;;;0.40;;
40931;SDS011;36257;46.052;12.540;2022-08-21T12:38:02;1.50;;;0.40;;
40931;SDS011;36257;46.052;12.540;2022-08-21T12:40:39;0.45;;;0.28;;
40931;SDS011;36257;46.052;12.540;2022-08-21T12:43:11;3.35;;;0.35;;
40931;SDS011;36257;46.052;12.540;2022-08-21T12:45:42;1.38;;;0.40;;
40931;SDS011;36257;46.052;12.540;2022-08-21T12:51:10;1.40;;;0.57;;
40931;SDS011;36257;46.052;12.540;2022-08-21T12:53:44;1.60;;;0.38;;
40931;SDS011;36257;46.052;12.540;2022-08-21T12:56:13;2.90;;;0.57;;
40931;SDS011;36257;46.052;12.540;2022-08-21T12:58:45;2.70;;;0.30;;
40931;SDS011;36257;46.052;12.540;2022-08-21T13:01:19;3.70;;;0.32;;
40931;SDS011;36257;46.052;12.540;2022-08-21T13:03:49;1.13;;;0.20;;
40931;SDS011;36257;46.052;12.540;2022-08-21T13:06:19;0.40;;;0.30;;
40931;SDS011;36257;46.052;12.540;2022-08-21T13:08:47;0.35;;;0.22;;
40931;SDS011;36257;46.052;12.540;2022-08-21T13:11:19;1.15;;;0.40;;
40931;SDS011;36257;46.052;12.540;2022-08-21T13:13:50;1.00;;;0.40;;
40931;SDS011;36257;46.052;12.540;2022-08-21T13:16:20;0.73;;;0.30;;
40931;SDS011;36257;46.052;12.540;2022-08-21T13:19:05;0.95;;;0.20;;
40931;SDS011;36257;46.052;12.540;2022-08-21T13:21:35;2.75;;;0.30;;
40931;SDS011;36257;46.052;12.540;2022-08-21T13:24:21;0.60;;;0.30;;
40931;SDS011;36257;46.052;12.540;2022-08-21T13:26:53;0.80;;;0.40;;
40931;SDS011;36257;46.052;12.540;2022-08-21T13:29:21;0.30;;;0.20;;
40931;SDS011;36257;46.052;12.540;2022-08-21T13:31:53;0.60;;;0.30;;
40931;SDS011;36257;46.052;12.540;2022-08-21T13:34:21;0.85;;;0.40;;
40931;SDS011;36257;46.052;12.540;2022-08-21T13:36:50;0.50;;;0.30;;
40931;SDS011;36257;46.052;12.540;2022-08-21T13:39:19;0.75;;;0.40;;
40931;SDS011;36257;46.052;12.540;2022-08-21T13:41:48;0.75;;;0.35;;
40931;SDS011;36257;46.052;12.540;2022-08-21T13:46:45;0.95;;;0.50;;
40931;SDS011;36257;46.052;12.540;2022-08-21T13:49:13;0.85;;;0.60;;
40931;SDS011;36257;46.052;12.540;2022-08-21T13:51:42;0.30;;;0.20;;
40931;SDS011;36257;46.052;12.540;2022-08-21T13:56:47;0.30;;;0.20;;
40931;SDS011;36257;46.052;12.540;2022-08-21T13:59:22;0.57;;;0.50;;
40931;SDS011;36257;46.052;12.540;2022-08-21T14:04:36;0.63;;;0.20;;
40931;SDS011;36257;46.052;12.540;2022-08-21T14:07:25;0.30;;;0.20;;
40931;SDS011;36257;46.052;12.540;2022-08-21T14:09:59;0.75;;;0.38;;
40931;SDS011;36257;46.052;12.540;2022-08-21T14:12:29;1.67;;;0.35;;
40931;SDS011;36257;46.052;12.540;2022-08-21T14:15:03;0.80;;;0.40;;
40931;SDS011;36257;46.052;12.540;2022-08-21T14:20:05;0.98;;;0.20;;
40931;SDS011;36257;46.052;12.540;2022-08-21T14:22:41;3.60;;;0.43;;
40931;SDS011;36257;46.052;12.540;2022-08-21T14:25:15;0.73;;;0.20;;
40931;SDS011;36257;46.052;12.540;2022-08-21T14:27:58;0.30;;;0.20;;
40931;SDS011;36257;46.052;12.540;2022-08-21T14:32:52;1.25;;;0.30;;
40931;SDS011;36257;46.052;12.540;2022-08-21T14:35:18;0.85;;;0.25;;
40931;SDS011;36257;46.052;12.540;2022-08-21T14:37:46;0.68;;;0.20;;
40931;SDS011;36257;46.052;12.540;2022-08-21T14:40:15;0.70;;;0.25;;
40931;SDS011;36257;46.052;12.540;2022-08-21T14:42:42;0.10;;;0.10;;
40931;SDS011;36257;46.052;12.540;2022-08-21T14:45:15;0.73;;;0.17;;
40931;SDS011;36257;46.052;12.540;2022-08-21T14:47:42;0.20;;;0.20;;
40931;SDS011;36257;46.052;12.540;2022-08-21T14:50:09;0.50;;;0.20;;
40931;SDS011;36257;46.052;12.540;2022-08-21T14:55:02;0.47;;;0.30;;
40931;SDS011;36257;46.052;12.540;2022-08-21T14:57:29;0.40;;;0.20;;
40931;SDS011;36257;46.052;12.540;2022-08-21T14:59:56;1.77;;;0.30;;
40931;SDS011;36257;46.052;12.540;2022-08-21T15:02:22;1.10;;;0.30;;
40931;SDS011;36257;46.052;12.540;2022-08-21T15:04:48;2.15;;;0.20;;
40931;SDS011;36257;46.052;12.540;2022-08-21T15:07:13;0.30;;;0.20;;
40931;SDS011;36257;46.052;12.540;2022-08-21T15:09:39;0.40;;;0.20;;
40931;SDS011;36257;46.052;12.540;2022-08-21T15:12:05;2.13;;;0.30;;
40931;SDS011;36257;46.052;12.540;2022-08-21T15:14:33;0.60;;;0.10;;
40931;SDS011;36257;46.052;12.540;2022-08-21T15:17:02;1.95;;;0.30;;
40931;SDS011;36257;46.052;12.540;2022-08-21T15:19:30;0.45;;;0.28;;
40931;SDS011;36257;46.052;12.540;2022-08-21T15:21:56;2.17;;;0.30;;
40931;SDS011;36257;46.052;12.540;2022-08-21T15:24:22;1.42;;;0.30;;
40931;SDS011;36257;46.052;12.540;2022-08-21T15:26:47;1.85;;;0.40;;
40931;SDS011;36257;46.052;12.540;2022-08-21T15:29:13;0.45;;;0.25;;
40931;SDS011;36257;46.052;12.540;2022-08-21T15:31:56;1.85;;;0.45;;
40931;SDS011;36257;46.052;12.540;2022-08-21T15:34:24;0.30;;;0.20;;
40931;SDS011;36257;46.052;12.540;2022-08-21T15:36:50;6.03;;;0.40;;
40931;SDS011;36257;46.052;12.540;2022-08-21T15:39:16;2.30;;;0.30;;
40931;SDS011;36257;46.052;12.540;2022-08-21T15:41:42;0.35;;;0.30;;
40931;SDS011;36257;46.052;12.540;2022-08-21T15:44:09;0.63;;;0.17;;
40931;SDS011;36257;46.052;12.540;2022-08-21T15:46:37;1.08;;;0.30;;
40931;SDS011;36257;46.052;12.540;2022-08-21T15:49:04;3.35;;;0.40;;
40931;SDS011;36257;46.052;12.540;2022-08-21T15:51:30;3.30;;;0.10;;
40931;SDS011;36257;46.052;12.540;2022-08-21T15:53:57;2.58;;;0.52;;
40931;SDS011;36257;46.052;12.540;2022-08-21T15:56:24;2.95;;;0.50;;
40931;SDS011;36257;46.052;12.540;2022-08-21T15:58:52;0.47;;;0.40;;
40931;SDS011;36257;46.052;12.540;2022-08-21T16:01:22;0.82;;;0.20;;
40931;SDS011;36257;46.052;12.540;2022-08-21T16:03:49;2.20;;;0.57;;
40931;SDS011;36257;46.052;12.540;2022-08-21T16:06:17;1.25;;;0.20;;
40931;SDS011;36257;46.052;12.540;2022-08-21T16:08:43;1.85;;;0.30;;
40931;SDS011;36257;46.052;12.540;2022-08-21T16:11:10;0.20;;;0.20;;
40931;SDS011;36257;46.052;12.540;2022-08-21T16:13:38;2.63;;;0.50;;
40931;SDS011;36257;46.052;12.540;2022-08-21T16:16:07;0.40;;;0.30;;
40931;SDS011;36257;46.052;12.540;2022-08-21T16:18:37;1.13;;;0.65;;